M T Basat — 9HNX9 — position and weather

sailwx.info

Track history (hours):
 
Tides and Currents Weather Stations Pressure Air Temp Water Temp Dewpoint Dewpoint Depression Visibility Wind Speed Wind Dir Waves Ship Positions

M T Basat

Last reported at 2017-Sep-23 22:43 UTC. Time now 2017-Sep-25 06:34 UTC.
Position N 44°27' E 012°15'.

Length 132 m; draft 8.7 m.

Type: Ship (hazmat cat B). MMSI: 249255000.

Date/timePositionNaut miles runAvg speedWind from/ knotsBaromVisibWave heightAir tempDewpointWater temp
2017-Sep-23 22:43N 44°27' E 012°15'  
2017-Sep-21 06:45N 44°27' E 012°15'2 5.7
2017-Sep-21 06:21N 44°29' E 012°16'3 7.4
2017-Sep-21 05:58N 44°30' E 012°20'1 2.6
2017-Sep-21 05:30N 44°30' E 012°22'2 3.0
2017-Sep-21 04:59N 44°30' E 012°24'7 5.3
2017-Sep-21 03:37N 44°28' E 012°34'16 6.5
2017-Sep-21 01:05N 44°23' E 012°56'1 8.3
2017-Sep-21 01:00N 44°23' E 012°57'5 8.5
2017-Sep-21 00:26N 44°21' E 013°03'4 8.4
2017-Sep-21 00:00N 44°20' E 013°08'  
2017-Sep-18 12:37N 36°25' E 023°04'312.2
2017-Sep-18 12:24N 36°25' E 023°07'710.3
2017-Sep-18 11:42N 36°28' E 023°15'311.8
2017-Sep-18 11:28N 36°31' E 023°17'511.8
2017-Sep-18 11:00N 36°35' E 023°20'612.0
2017-Sep-18 10:29N 36°40' E 023°25'612.1
2017-Sep-18 10:00N 36°45' E 023°28'612.2
2017-Sep-18 09:31N 36°50' E 023°32'612.1
2017-Sep-18 09:00N 36°56' E 023°36'612.0
2017-Sep-18 08:31N 37°01' E 023°39'611.9
2017-Sep-18 08:00N 37°06' E 023°44'612.1
2017-Sep-18 07:30N 37°11' E 023°48'612.1
2017-Sep-18 07:00N 37°16' E 023°52'612.2
2017-Sep-18 06:30N 37°21' E 023°56'612.2
2017-Sep-18 06:00N 37°27' E 024°00'612.4
2017-Sep-18 05:30N 37°32' E 024°04'4911.9
2017-Sep-18 01:22N 38°10' E 024°44'512.3
2017-Sep-18 00:57N 38°14' E 024°47'612.6
2017-Sep-18 00:30N 38°19' E 024°50'612.6
2017-Sep-18 00:01N 38°25' E 024°54'612.7
2017-Sep-17 23:30N 38°31' E 024°57'612.6
2017-Sep-17 23:00N 38°36' E 025°01'1712.5
2017-Sep-17 21:40N 38°51' E 025°11'2512.7
2017-Sep-17 19:40N 39°14' E 025°24'212.6
2017-Sep-17 19:30N 39°16' E 025°25'712.8
2017-Sep-17 18:59N 39°22' E 025°28'1813.0
2017-Sep-17 17:34N 39°38' E 025°40'213.2
2017-Sep-17 17:25N 39°40' E 025°41'813.0
2017-Sep-17 16:50N 39°47' E 025°46'513.1
2017-Sep-17 16:29N 39°50' E 025°50'613.6
2017-Sep-17 16:00N 39°56' E 025°55'712.4
2017-Sep-17 15:27N 40°00' E 026°01'613.2
2017-Sep-17 15:00N 40°01' E 026°09'1411.4
2017-Sep-17 13:48N 40°10' E 026°23'138 3.4
2017-Sep-15 20:55N 41°20' E 029°00'713.1
2017-Sep-15 20:25N 41°25' E 029°06'1113.2
2017-Sep-15 19:34N 41°35' E 029°13'1413.1
2017-Sep-15 18:29N 41°48' E 029°19'612.9
2017-Sep-15 18:00N 41°54' E 029°22'612.8
2017-Sep-15 17:30N 42°00' E 029°24'612.8
2017-Sep-15 17:00N 42°07' E 029°26'612.6
2017-Sep-15 16:30N 42°13' E 029°29'612.7
2017-Sep-15 16:00N 42°19' E 029°31'612.7
2017-Sep-15 15:30N 42°25' E 029°33'612.7
2017-Sep-15 15:00N 42°31' E 029°36'612.5
2017-Sep-15 14:30N 42°37' E 029°38'612.5
2017-Sep-15 14:00N 42°43' E 029°41'612.4
2017-Sep-15 13:30N 42°49' E 029°43'612.5
2017-Sep-15 13:00N 42°55' E 029°46'612.6
2017-Sep-15 12:30N 43°01' E 029°48'612.6
2017-Sep-15 12:00N 43°07' E 029°50'612.8
2017-Sep-15 11:30N 43°13' E 029°53'612.7
2017-Sep-15 11:00N 43°19' E 029°55'612.2
2017-Sep-15 10:30N 43°25' E 029°58'612.2
2017-Sep-15 10:00N 43°31' E 030°00'612.1
2017-Sep-15 09:30N 43°37' E 030°02'612.1
2017-Sep-15 09:00N 43°42' E 030°05'612.0
2017-Sep-15 08:30N 43°48' E 030°07'611.9
2017-Sep-15 08:00N 43°54' E 030°10'611.8
2017-Sep-15 07:30N 43°60' E 030°12'611.9
2017-Sep-15 07:00N 44°05' E 030°14'612.0
2017-Sep-15 06:30N 44°11' E 030°17'612.0
2017-Sep-15 06:00N 44°17' E 030°19'612.2
2017-Sep-15 05:30N 44°23' E 030°21'612.2
2017-Sep-15 05:00N 44°29' E 030°24'812.1
2017-Sep-15 04:22N 44°36' E 030°27'412.1
2017-Sep-15 04:00N 44°40' E 030°28'612.2
2017-Sep-15 03:28N 44°46' E 030°31'712.2
2017-Sep-15 02:56N 44°53' E 030°34'512.4
2017-Sep-15 02:29N 44°58' E 030°36'612.4
2017-Sep-15 02:00N 45°04' E 030°38'612.3
2017-Sep-15 01:30N 45°10' E 030°41'612.2
2017-Sep-15 01:00N 45°15' E 030°43'612.2
2017-Sep-15 00:30N 45°21' E 030°46'611.9
2017-Sep-15 00:00N 45°27' E 030°48'2111.9
2017-Sep-14 22:15N 45°47' E 030°58'312.0
2017-Sep-14 22:00N 45°49' E 030°58'612.2
2017-Sep-14 21:30N 45°55' E 030°60'611.9
2017-Sep-14 21:00N 46°01' E 031°03'611.6
2017-Sep-14 20:30N 46°07' E 031°05'612.4
2017-Sep-14 20:00N 46°11' E 030°59'611.3
2017-Sep-14 19:30N 46°16' E 030°54'611.5
2017-Sep-14 19:00N 46°22' E 030°55'611.6
2017-Sep-14 18:30N 46°28' E 030°55'510.4
2017-Sep-14 18:00N 46°33' E 030°58'5 9.1
2017-Sep-14 17:30N 46°34' E 031°04'611.4
2017-Sep-14 17:00N 46°35' E 031°12'611.6
2017-Sep-14 16:30N 46°35' E 031°21'610.9
2017-Sep-14 15:58N 46°36' E 031°29'5 9.8
2017-Sep-14 15:30N 46°35' E 031°36'611.0
2017-Sep-14 15:00N 46°36' E 031°44'510.6
2017-Sep-14 14:30N 46°37' E 031°51'5 9.9
2017-Sep-14 14:00N 46°40' E 031°56'4 8.9
2017-Sep-14 13:31N 46°45' E 031°55'2 3.7
2017-Sep-14 13:00N 46°46' E 031°57'0 0.1
2017-Sep-14 12:30N 46°46' E 031°57'0 0.0
2017-Sep-14 12:00N 46°46' E 031°57'0 0.0
2017-Sep-14 11:30N 46°46' E 031°57'0 0.0
2017-Sep-14 11:00N 46°46' E 031°57'0 0.0
2017-Sep-14 10:30N 46°46' E 031°57'0 0.0
2017-Sep-14 10:00N 46°46' E 031°57'0 0.0
2017-Sep-14 09:30N 46°46' E 031°57'0 0.0
2017-Sep-14 08:57N 46°46' E 031°57'0 0.0
2017-Sep-14 08:30N 46°46' E 031°57'0 0.0
2017-Sep-14 08:00N 46°46' E 031°57'0 0.0
2017-Sep-14 07:30N 46°46' E 031°57'0 0.0
2017-Sep-14 07:00N 46°46' E 031°57'0 0.0
2017-Sep-14 06:30N 46°46' E 031°57'0 0.0
2017-Sep-14 06:00N 46°46' E 031°57'0 0.0
2017-Sep-14 05:27N 46°46' E 031°57'0 0.0
2017-Sep-14 05:00N 46°46' E 031°57'0 0.0
2017-Sep-14 04:30N 46°46' E 031°57'0 0.0
2017-Sep-14 04:00N 46°46' E 031°57'0 0.0
2017-Sep-14 03:24N 46°46' E 031°57'0 0.0
2017-Sep-14 02:57N 46°46' E 031°57'0 0.0
2017-Sep-14 02:30N 46°46' E 031°57'0 0.0
2017-Sep-14 02:00N 46°46' E 031°57'0 0.0
2017-Sep-14 01:30N 46°46' E 031°57'0 0.0
2017-Sep-14 01:00N 46°46' E 031°57'0 0.0
2017-Sep-14 00:30N 46°46' E 031°57'0 0.0
2017-Sep-14 00:00N 46°46' E 031°57'0 0.0
2017-Sep-13 23:30N 46°46' E 031°57'0 0.0
2017-Sep-13 23:00N 46°46' E 031°57'  
Track history (hours):
 
Tides and Currents Weather Stations Pressure Air Temp Water Temp Dewpoint Dewpoint Depression Visibility Wind Speed Wind Dir Waves Ship Positions

M T Basat

Last reported at 2017-Sep-23 22:43 UTC. Time now 2017-Sep-25 06:34 UTC.
Position N 44°27' E 012°15'.

Length 132 m; draft 8.7 m.

Type: Ship (hazmat cat B). MMSI: 249255000.

Date/timePositionNaut miles runAvg speedWind from/ knotsBaromVisibWave heightAir tempDewpointWater temp
2017-Sep-23 22:43N 44°27' E 012°15'  
2017-Sep-21 06:45N 44°27' E 012°15'2 5.7
2017-Sep-21 06:21N 44°29' E 012°16'3 7.4
2017-Sep-21 05:58N 44°30' E 012°20'1 2.6
2017-Sep-21 05:30N 44°30' E 012°22'2 3.0
2017-Sep-21 04:59N 44°30' E 012°24'7 5.3
2017-Sep-21 03:37N 44°28' E 012°34'16 6.5
2017-Sep-21 01:05N 44°23' E 012°56'1 8.3
2017-Sep-21 01:00N 44°23' E 012°57'5 8.5
2017-Sep-21 00:26N 44°21' E 013°03'4 8.4
2017-Sep-21 00:00N 44°20' E 013°08'  
2017-Sep-18 12:37N 36°25' E 023°04'312.2
2017-Sep-18 12:24N 36°25' E 023°07'710.3
2017-Sep-18 11:42N 36°28' E 023°15'311.8
2017-Sep-18 11:28N 36°31' E 023°17'511.8
2017-Sep-18 11:00N 36°35' E 023°20'612.0
2017-Sep-18 10:29N 36°40' E 023°25'612.1
2017-Sep-18 10:00N 36°45' E 023°28'612.2
2017-Sep-18 09:31N 36°50' E 023°32'612.1
2017-Sep-18 09:00N 36°56' E 023°36'612.0
2017-Sep-18 08:31N 37°01' E 023°39'611.9
2017-Sep-18 08:00N 37°06' E 023°44'612.1
2017-Sep-18 07:30N 37°11' E 023°48'612.1
2017-Sep-18 07:00N 37°16' E 023°52'612.2
2017-Sep-18 06:30N 37°21' E 023°56'612.2
2017-Sep-18 06:00N 37°27' E 024°00'612.4
2017-Sep-18 05:30N 37°32' E 024°04'4911.9
2017-Sep-18 01:22N 38°10' E 024°44'512.3
2017-Sep-18 00:57N 38°14' E 024°47'612.6
2017-Sep-18 00:30N 38°19' E 024°50'612.6
2017-Sep-18 00:01N 38°25' E 024°54'612.7
2017-Sep-17 23:30N 38°31' E 024°57'612.6
2017-Sep-17 23:00N 38°36' E 025°01'1712.5
2017-Sep-17 21:40N 38°51' E 025°11'2512.7
2017-Sep-17 19:40N 39°14' E 025°24'212.6
2017-Sep-17 19:30N 39°16' E 025°25'712.8
2017-Sep-17 18:59N 39°22' E 025°28'1813.0
2017-Sep-17 17:34N 39°38' E 025°40'213.2
2017-Sep-17 17:25N 39°40' E 025°41'813.0
2017-Sep-17 16:50N 39°47' E 025°46'513.1
2017-Sep-17 16:29N 39°50' E 025°50'613.6
2017-Sep-17 16:00N 39°56' E 025°55'712.4
2017-Sep-17 15:27N 40°00' E 026°01'613.2
2017-Sep-17 15:00N 40°01' E 026°09'1411.4
2017-Sep-17 13:48N 40°10' E 026°23'138 3.4
2017-Sep-15 20:55N 41°20' E 029°00'713.1
2017-Sep-15 20:25N 41°25' E 029°06'1113.2
2017-Sep-15 19:34N 41°35' E 029°13'1413.1
2017-Sep-15 18:29N 41°48' E 029°19'612.9
2017-Sep-15 18:00N 41°54' E 029°22'612.8
2017-Sep-15 17:30N 42°00' E 029°24'612.8
2017-Sep-15 17:00N 42°07' E 029°26'612.6
2017-Sep-15 16:30N 42°13' E 029°29'612.7
2017-Sep-15 16:00N 42°19' E 029°31'612.7
2017-Sep-15 15:30N 42°25' E 029°33'612.7
2017-Sep-15 15:00N 42°31' E 029°36'612.5
2017-Sep-15 14:30N 42°37' E 029°38'612.5
2017-Sep-15 14:00N 42°43' E 029°41'612.4
2017-Sep-15 13:30N 42°49' E 029°43'612.5
2017-Sep-15 13:00N 42°55' E 029°46'612.6
2017-Sep-15 12:30N 43°01' E 029°48'612.6
2017-Sep-15 12:00N 43°07' E 029°50'612.8
2017-Sep-15 11:30N 43°13' E 029°53'612.7
2017-Sep-15 11:00N 43°19' E 029°55'612.2
2017-Sep-15 10:30N 43°25' E 029°58'612.2
2017-Sep-15 10:00N 43°31' E 030°00'612.1
2017-Sep-15 09:30N 43°37' E 030°02'612.1
2017-Sep-15 09:00N 43°42' E 030°05'612.0
2017-Sep-15 08:30N 43°48' E 030°07'611.9
2017-Sep-15 08:00N 43°54' E 030°10'611.8
2017-Sep-15 07:30N 43°60' E 030°12'611.9
2017-Sep-15 07:00N 44°05' E 030°14'612.0
2017-Sep-15 06:30N 44°11' E 030°17'612.0
2017-Sep-15 06:00N 44°17' E 030°19'612.2
2017-Sep-15 05:30N 44°23' E 030°21'612.2
2017-Sep-15 05:00N 44°29' E 030°24'812.1
2017-Sep-15 04:22N 44°36' E 030°27'412.1
2017-Sep-15 04:00N 44°40' E 030°28'612.2
2017-Sep-15 03:28N 44°46' E 030°31'712.2
2017-Sep-15 02:56N 44°53' E 030°34'512.4
2017-Sep-15 02:29N 44°58' E 030°36'612.4
2017-Sep-15 02:00N 45°04' E 030°38'612.3
2017-Sep-15 01:30N 45°10' E 030°41'612.2
2017-Sep-15 01:00N 45°15' E 030°43'612.2
2017-Sep-15 00:30N 45°21' E 030°46'611.9
2017-Sep-15 00:00N 45°27' E 030°48'2111.9
2017-Sep-14 22:15N 45°47' E 030°58'312.0
2017-Sep-14 22:00N 45°49' E 030°58'612.2
2017-Sep-14 21:30N 45°55' E 030°60'611.9
2017-Sep-14 21:00N 46°01' E 031°03'611.6
2017-Sep-14 20:30N 46°07' E 031°05'612.4
2017-Sep-14 20:00N 46°11' E 030°59'611.3
2017-Sep-14 19:30N 46°16' E 030°54'611.5
2017-Sep-14 19:00N 46°22' E 030°55'611.6
2017-Sep-14 18:30N 46°28' E 030°55'510.4
2017-Sep-14 18:00N 46°33' E 030°58'5 9.1
2017-Sep-14 17:30N 46°34' E 031°04'611.4
2017-Sep-14 17:00N 46°35' E 031°12'611.6
2017-Sep-14 16:30N 46°35' E 031°21'610.9
2017-Sep-14 15:58N 46°36' E 031°29'5 9.8
2017-Sep-14 15:30N 46°35' E 031°36'611.0
2017-Sep-14 15:00N 46°36' E 031°44'510.6
2017-Sep-14 14:30N 46°37' E 031°51'5 9.9
2017-Sep-14 14:00N 46°40' E 031°56'4 8.9
2017-Sep-14 13:31N 46°45' E 031°55'2 3.7
2017-Sep-14 13:00N 46°46' E 031°57'0 0.1
2017-Sep-14 12:30N 46°46' E 031°57'0 0.0
2017-Sep-14 12:00N 46°46' E 031°57'0 0.0
2017-Sep-14 11:30N 46°46' E 031°57'0 0.0
2017-Sep-14 11:00N 46°46' E 031°57'0 0.0
2017-Sep-14 10:30N 46°46' E 031°57'0 0.0
2017-Sep-14 10:00N 46°46' E 031°57'0 0.0
2017-Sep-14 09:30N 46°46' E 031°57'0 0.0
2017-Sep-14 08:57N 46°46' E 031°57'0 0.0
2017-Sep-14 08:30N 46°46' E 031°57'0 0.0
2017-Sep-14 08:00N 46°46' E 031°57'0 0.0
2017-Sep-14 07:30N 46°46' E 031°57'0 0.0
2017-Sep-14 07:00N 46°46' E 031°57'0 0.0
2017-Sep-14 06:30N 46°46' E 031°57'0 0.0
2017-Sep-14 06:00N 46°46' E 031°57'0 0.0
2017-Sep-14 05:27N 46°46' E 031°57'0 0.0
2017-Sep-14 05:00N 46°46' E 031°57'0 0.0
2017-Sep-14 04:30N 46°46' E 031°57'0 0.0
2017-Sep-14 04:00N 46°46' E 031°57'0 0.0
2017-Sep-14 03:24N 46°46' E 031°57'0 0.0
2017-Sep-14 02:57N 46°46' E 031°57'0 0.0
2017-Sep-14 02:30N 46°46' E 031°57'0 0.0
2017-Sep-14 02:00N 46°46' E 031°57'0 0.0
2017-Sep-14 01:30N 46°46' E 031°57'0 0.0
2017-Sep-14 01:00N 46°46' E 031°57'0 0.0
2017-Sep-14 00:30N 46°46' E 031°57'0 0.0
2017-Sep-14 00:00N 46°46' E 031°57'0 0.0
2017-Sep-13 23:30N 46°46' E 031°57'0 0.0
2017-Sep-13 23:00N 46°46' E 031°57'  

Dump ship's entire track history